Airfield :
LOGIN :

Register | Disclaimer

   EN    FR    IT 

 










Legend :    VFR   Marginal VFR   IFR   Intensive IFR   Very Intensive IFR
Visi :
Ceiling :
>= 8 km
>= 3000ft
5 to 8 km
1000 to 3000 ft
1500m to 5 km
500 to 1000 ft
800 to 1500m
200 to 500 ft
< 800m
< 200 ft
Symbols :   Thunderstorms  Fog  Heavy snow  Heavy precipitations  Wind > 20 kt
SIGMETs :     Misc.  Thunderstorms  Icing  Turbulence  Mountain Waves  Volcanic Ashes







- Airport Elevation : 348 ft
- IATA code : LDV
- Download approach charts


LFRJ - Landivisiau

CURRENT METAR :
  • 160830Z AUTO 15004KT 120V210 9999 FEW003 OVC028 12/12 Q1016 TEMPO 4000 BR VV///

EXPIRED METARs :
  • 160800Z AUTO 22004KT 8000 BKN001/// OVC027/// 12/12 Q1016 TEMPO 3000 DZ BR OVC002
  • 160730Z AUTO VRB02KT 7000 3200 FEW002 OVC015 12/11 Q1016 TEMPO 3000 DZ BR OVC002
  • 160700Z AUTO 22002KT 6000 2300 SCT007 OVC012 12/11 Q1016 TEMPO 3000 DZ BR OVC002
  • 160630Z AUTO 19003KT 7000 BKN006 OVC013 12/11 Q1015 TEMPO 3000 DZ BR OVC002
  • 160600Z AUTO VRB02KT 9000 SCT004 OVC010 12/11 Q1015 TEMPO 3000 DZ BR VV///

TAF TAF LFRJ
Valid from the 16 at 09:00 until the 16 at 18:00 UTC


160800Z 1609/1618 22005KT 9999 BKN015 OVC020
TEMPO 1609/1611 BKN002
PROB30
TEMPO 1609/1610 4000 BR VV///
No reported NOTAMs for that airfield.



MET'MAP, your aeronautical weather chart ! - Copyright ORBIFLY December 2007 - Disclaimer

ORBIFLY MET'MAP TEAM :

Programming & Development : Alexandra Zaïnal
Concept & Development : Baudouin d'Aumeries
Co-Development & Prog : Marc-Olivier Méhu
Technical & hardware support : Manuel Goepfert

Contact : metmap@orbifly.com




SOURCES & CREDITS :

   NOAA